sensor_id;sensor_type;location;lat;lon;timestamp;pressure;altitude;pressure_sealevel;temperature;humidity
47104;BME280;32853;52.164;5.400;2022-08-19T00:01:29;101316.38;;;21.07;100.00
47104;BME280;32853;52.164;5.400;2022-08-19T00:03:58;101318.91;;;21.08;100.00
47104;BME280;32853;52.164;5.400;2022-08-19T00:06:26;101235.72;;;20.60;100.00
47104;BME280;32853;52.164;5.400;2022-08-19T00:08:51;101319.88;;;21.07;100.00
47104;BME280;32853;52.164;5.400;2022-08-19T00:11:17;101262.13;;;20.74;100.00
47104;BME280;32853;52.164;5.400;2022-08-19T00:13:43;101323.25;;;21.09;100.00
47104;BME280;32853;52.164;5.400;2022-08-19T00:16:08;101275.41;;;20.74;100.00
47104;BME280;32853;52.164;5.400;2022-08-19T00:18:34;101285.25;;;20.85;100.00
47104;BME280;32853;52.164;5.400;2022-08-19T00:20:59;101326.38;;;21.03;100.00
47104;BME280;32853;52.164;5.400;2022-08-19T00:23:26;101319.47;;;21.01;100.00
47104;BME280;32853;52.164;5.400;2022-08-19T00:25:51;101296.09;;;20.82;100.00
47104;BME280;32853;52.164;5.400;2022-08-19T00:28:17;101326.44;;;20.91;100.00
47104;BME280;32853;52.164;5.400;2022-08-19T00:30:44;101261.81;;;20.55;100.00
47104;BME280;32853;52.164;5.400;2022-08-19T00:33:10;101275.72;;;20.58;100.00
47104;BME280;32853;52.164;5.400;2022-08-19T00:35:36;101278.38;;;20.58;100.00
47104;BME280;32853;52.164;5.400;2022-08-19T00:38:04;101261.41;;;20.48;100.00
47104;BME280;32853;52.164;5.400;2022-08-19T00:40:32;101264.41;;;20.44;100.00
47104;BME280;32853;52.164;5.400;2022-08-19T00:43:09;101317.22;;;20.83;100.00
47104;BME280;32853;52.164;5.400;2022-08-19T00:45:34;101298.50;;;20.74;100.00
47104;BME280;32853;52.164;5.400;2022-08-19T00:48:02;101313.84;;;20.81;100.00
47104;BME280;32853;52.164;5.400;2022-08-19T00:50:31;101312.28;;;20.79;100.00
47104;BME280;32853;52.164;5.400;2022-08-19T00:52:57;101312.50;;;20.76;100.00
47104;BME280;32853;52.164;5.400;2022-08-19T00:55:26;101310.59;;;20.78;100.00
47104;BME280;32853;52.164;5.400;2022-08-19T00:58:18;101313.13;;;20.79;100.00
47104;BME280;32853;52.164;5.400;2022-08-19T01:00:45;101299.78;;;20.68;100.00
47104;BME280;32853;52.164;5.400;2022-08-19T01:03:13;101286.28;;;20.47;100.00
47104;BME280;32853;52.164;5.400;2022-08-19T01:05:41;101306.91;;;20.68;100.00
47104;BME280;32853;52.164;5.400;2022-08-19T01:08:07;101310.00;;;20.62;100.00
47104;BME280;32853;52.164;5.400;2022-08-19T01:10:40;101285.03;;;20.40;100.00
47104;BME280;32853;52.164;5.400;2022-08-19T01:13:07;101304.28;;;20.44;100.00
47104;BME280;32853;52.164;5.400;2022-08-19T01:15:40;101267.13;;;20.31;100.00
47104;BME280;32853;52.164;5.400;2022-08-19T01:18:10;101266.88;;;20.34;100.00
47104;BME280;32853;52.164;5.400;2022-08-19T01:20:36;101264.91;;;20.25;100.00
47104;BME280;32853;52.164;5.400;2022-08-19T01:23:01;101307.31;;;20.50;100.00
47104;BME280;32853;52.164;5.400;2022-08-19T01:25:48;101307.66;;;20.46;100.00
47104;BME280;32853;52.164;5.400;2022-08-19T01:28:43;101303.31;;;20.45;100.00
47104;BME280;32853;52.164;5.400;2022-08-19T01:31:17;101192.47;;;19.75;100.00
47104;BME280;32853;52.164;5.400;2022-08-19T01:33:44;101308.81;;;20.42;100.00
47104;BME280;32853;52.164;5.400;2022-08-19T01:36:25;101232.28;;;19.99;100.00
47104;BME280;32853;52.164;5.400;2022-08-19T01:38:55;101307.56;;;20.35;100.00
47104;BME280;32853;52.164;5.400;2022-08-19T01:41:21;101275.81;;;20.09;100.00
47104;BME280;32853;52.164;5.400;2022-08-19T01:43:49;101317.28;;;20.23;100.00
47104;BME280;32853;52.164;5.400;2022-08-19T01:46:15;101292.59;;;20.10;100.00
47104;BME280;32853;52.164;5.400;2022-08-19T01:48:42;101300.31;;;20.13;100.00
47104;BME280;32853;52.164;5.400;2022-08-19T01:51:09;101311.00;;;20.24;100.00
47104;BME280;32853;52.164;5.400;2022-08-19T01:53:36;101299.97;;;20.17;100.00
47104;BME280;32853;52.164;5.400;2022-08-19T01:56:02;101273.09;;;19.98;100.00
47104;BME280;32853;52.164;5.400;2022-08-19T01:58:33;101258.78;;;19.88;100.00
47104;BME280;32853;52.164;5.400;2022-08-19T02:01:02;101279.00;;;20.01;100.00
47104;BME280;32853;52.164;5.400;2022-08-19T02:03:28;101235.78;;;19.76;100.00
47104;BME280;32853;52.164;5.400;2022-08-19T02:05:56;101188.72;;;19.41;100.00
47104;BME280;32853;52.164;5.400;2022-08-19T02:08:23;101243.31;;;19.69;100.00
47104;BME280;32853;52.164;5.400;2022-08-19T02:10:48;101184.28;;;19.29;100.00
47104;BME280;32853;52.164;5.400;2022-08-19T02:13:15;101318.19;;;20.11;100.00
47104;BME280;32853;52.164;5.400;2022-08-19T02:15:41;101322.53;;;20.12;100.00
47104;BME280;32853;52.164;5.400;2022-08-19T02:18:06;101300.69;;;19.95;100.00
47104;BME280;32853;52.164;5.400;2022-08-19T02:20:32;101324.34;;;20.11;100.00
47104;BME280;32853;52.164;5.400;2022-08-19T02:22:58;101300.91;;;19.92;100.00
47104;BME280;32853;52.164;5.400;2022-08-19T02:25:23;101311.81;;;20.00;100.00
47104;BME280;32853;52.164;5.400;2022-08-19T02:27:48;101283.94;;;19.82;100.00
47104;BME280;32853;52.164;5.400;2022-08-19T02:30:16;101196.25;;;19.22;100.00
47104;BME280;32853;52.164;5.400;2022-08-19T02:32:43;101272.72;;;19.66;100.00
47104;BME280;32853;52.164;5.400;2022-08-19T02:35:08;101320.66;;;19.88;100.00
47104;BME280;32853;52.164;5.400;2022-08-19T02:37:34;101327.69;;;19.89;100.00
47104;BME280;32853;52.164;5.400;2022-08-19T02:40:19;101285.56;;;19.59;100.00
47104;BME280;32853;52.164;5.400;2022-08-19T02:42:44;101320.16;;;19.70;100.00
47104;BME280;32853;52.164;5.400;2022-08-19T02:45:12;101270.81;;;19.42;100.00
47104;BME280;32853;52.164;5.400;2022-08-19T02:47:37;101265.31;;;19.33;100.00
47104;BME280;32853;52.164;5.400;2022-08-19T02:50:03;101270.72;;;19.31;100.00
47104;BME280;32853;52.164;5.400;2022-08-19T02:52:29;101337.13;;;19.81;100.00
47104;BME280;32853;52.164;5.400;2022-08-19T02:54:56;101340.63;;;19.81;100.00
47104;BME280;32853;52.164;5.400;2022-08-19T02:57:23;101283.84;;;19.45;100.00
47104;BME280;32853;52.164;5.400;2022-08-19T02:59:48;101317.72;;;19.67;100.00
47104;BME280;32853;52.164;5.400;2022-08-19T03:02:14;101335.56;;;19.78;100.00
47104;BME280;32853;52.164;5.400;2022-08-19T03:04:40;101316.88;;;19.67;100.00
47104;BME280;32853;52.164;5.400;2022-08-19T03:07:09;101328.13;;;19.70;100.00
47104;BME280;32853;52.164;5.400;2022-08-19T03:09:39;101338.81;;;19.82;100.00
47104;BME280;32853;52.164;5.400;2022-08-19T03:12:05;101251.94;;;19.34;100.00
47104;BME280;32853;52.164;5.400;2022-08-19T03:14:32;101223.94;;;19.17;100.00
47104;BME280;32853;52.164;5.400;2022-08-19T03:16:58;101221.72;;;19.11;100.00
47104;BME280;32853;52.164;5.400;2022-08-19T03:19:34;101321.97;;;19.70;100.00
47104;BME280;32853;52.164;5.400;2022-08-19T03:22:00;101229.13;;;19.06;100.00
47104;BME280;32853;52.164;5.400;2022-08-19T03:24:25;101304.13;;;19.59;100.00
47104;BME280;32853;52.164;5.400;2022-08-19T03:27:03;101314.97;;;19.69;100.00
47104;BME280;32853;52.164;5.400;2022-08-19T03:29:31;101208.47;;;18.99;100.00
47104;BME280;32853;52.164;5.400;2022-08-19T03:32:08;101298.22;;;19.56;100.00
47104;BME280;32853;52.164;5.400;2022-08-19T03:34:34;101311.38;;;19.57;100.00
47104;BME280;32853;52.164;5.400;2022-08-19T03:37:08;101301.56;;;19.45;100.00
47104;BME280;32853;52.164;5.400;2022-08-19T03:39:36;101310.81;;;19.52;100.00
47104;BME280;32853;52.164;5.400;2022-08-19T03:42:02;101309.44;;;19.47;100.00
47104;BME280;32853;52.164;5.400;2022-08-19T03:44:30;101317.63;;;19.56;100.00
47104;BME280;32853;52.164;5.400;2022-08-19T03:46:58;101262.00;;;19.16;100.00
47104;BME280;32853;52.164;5.400;2022-08-19T03:49:27;101269.53;;;19.23;100.00
47104;BME280;32853;52.164;5.400;2022-08-19T03:51:57;101323.97;;;19.54;100.00
47104;BME280;32853;52.164;5.400;2022-08-19T03:54:37;101291.81;;;19.33;100.00
47104;BME280;32853;52.164;5.400;2022-08-19T03:57:03;101152.44;;;18.52;100.00
47104;BME280;32853;52.164;5.400;2022-08-19T03:59:34;101329.69;;;19.48;100.00
47104;BME280;32853;52.164;5.400;2022-08-19T04:02:04;101315.38;;;19.37;100.00
47104;BME280;32853;52.164;5.400;2022-08-19T04:04:32;101264.47;;;19.07;100.00
47104;BME280;32853;52.164;5.400;2022-08-19T04:06:58;101318.56;;;19.30;100.00
47104;BME280;32853;52.164;5.400;2022-08-19T04:09:24;101316.00;;;19.28;100.00
47104;BME280;32853;52.164;5.400;2022-08-19T04:11:52;101232.94;;;18.77;100.00
47104;BME280;32853;52.164;5.400;2022-08-19T04:14:24;101232.72;;;18.67;100.00
47104;BME280;32853;52.164;5.400;2022-08-19T04:16:51;101272.81;;;19.01;100.00
47104;BME280;32853;52.164;5.400;2022-08-19T04:19:22;101305.38;;;19.15;100.00
47104;BME280;32853;52.164;5.400;2022-08-19T04:22:06;101218.34;;;18.57;100.00
47104;BME280;32853;52.164;5.400;2022-08-19T04:24:39;101305.38;;;19.03;100.00
47104;BME280;32853;52.164;5.400;2022-08-19T04:27:12;101241.22;;;18.58;100.00
47104;BME280;32853;52.164;5.400;2022-08-19T04:29:40;101281.81;;;18.85;100.00
47104;BME280;32853;52.164;5.400;2022-08-19T04:32:06;101257.03;;;18.59;100.00
47104;BME280;32853;52.164;5.400;2022-08-19T04:34:31;101259.03;;;18.56;100.00
47104;BME280;32853;52.164;5.400;2022-08-19T04:37:04;101305.97;;;18.81;100.00
47104;BME280;32853;52.164;5.400;2022-08-19T04:39:38;101292.81;;;18.67;100.00
47104;BME280;32853;52.164;5.400;2022-08-19T04:42:22;101315.94;;;18.77;100.00
47104;BME280;32853;52.164;5.400;2022-08-19T04:45:10;101297.59;;;18.60;100.00
47104;BME280;32853;52.164;5.400;2022-08-19T04:47:43;101233.19;;;18.20;100.00
47104;BME280;32853;52.164;5.400;2022-08-19T04:50:10;101309.69;;;18.51;100.00
47104;BME280;32853;52.164;5.400;2022-08-19T04:52:40;101219.13;;;18.05;100.00
47104;BME280;32853;52.164;5.400;2022-08-19T04:55:10;101189.97;;;17.92;100.00
47104;BME280;32853;52.164;5.400;2022-08-19T04:57:37;101193.09;;;17.99;100.00
47104;BME280;32853;52.164;5.400;2022-08-19T05:00:08;101298.88;;;18.54;100.00
47104;BME280;32853;52.164;5.400;2022-08-19T05:02:49;101224.63;;;18.02;100.00
47104;BME280;32853;52.164;5.400;2022-08-19T05:08:13;101294.63;;;18.25;100.00
47104;BME280;32853;52.164;5.400;2022-08-19T05:10:47;101261.69;;;18.02;100.00
47104;BME280;32853;52.164;5.400;2022-08-19T05:13:13;101323.31;;;18.45;100.00
47104;BME280;32853;52.164;5.400;2022-08-19T05:15:39;101331.34;;;18.44;100.00
47104;BME280;32853;52.164;5.400;2022-08-19T05:18:05;101296.22;;;18.27;100.00
47104;BME280;32853;52.164;5.400;2022-08-19T05:20:49;101327.75;;;18.45;100.00
47104;BME280;32853;52.164;5.400;2022-08-19T05:23:40;101286.88;;;18.22;100.00
47104;BME280;32853;52.164;5.400;2022-08-19T05:26:06;101329.19;;;18.36;100.00
47104;BME280;32853;52.164;5.400;2022-08-19T05:28:32;101333.53;;;18.37;100.00
47104;BME280;32853;52.164;5.400;2022-08-19T05:30:57;101253.78;;;17.88;100.00
47104;BME280;32853;52.164;5.400;2022-08-19T05:33:22;101327.50;;;18.35;100.00
47104;BME280;32853;52.164;5.400;2022-08-19T05:35:49;101329.94;;;18.38;100.00
47104;BME280;32853;52.164;5.400;2022-08-19T05:38:16;101317.16;;;18.45;100.00
47104;BME280;32853;52.164;5.400;2022-08-19T05:40:42;101326.69;;;18.47;100.00
47104;BME280;32853;52.164;5.400;2022-08-19T05:43:13;101270.53;;;18.15;100.00
47104;BME280;32853;52.164;5.400;2022-08-19T05:45:42;101322.91;;;18.66;100.00
47104;BME280;32853;52.164;5.400;2022-08-19T05:48:09;101321.63;;;18.71;100.00
47104;BME280;32853;52.164;5.400;2022-08-19T05:50:39;101267.31;;;18.51;100.00
47104;BME280;32853;52.164;5.400;2022-08-19T05:53:05;101291.09;;;18.66;100.00
47104;BME280;32853;52.164;5.400;2022-08-19T05:55:34;101260.72;;;18.57;100.00
47104;BME280;32853;52.164;5.400;2022-08-19T05:58:05;101294.66;;;18.92;100.00
47104;BME280;32853;52.164;5.400;2022-08-19T06:00:33;101309.84;;;19.15;100.00
47104;BME280;32853;52.164;5.400;2022-08-19T06:02:58;101316.53;;;19.21;100.00
47104;BME280;32853;52.164;5.400;2022-08-19T06:05:31;101312.50;;;19.28;100.00
47104;BME280;32853;52.164;5.400;2022-08-19T06:07:59;101322.59;;;19.35;100.00
47104;BME280;32853;52.164;5.400;2022-08-19T06:10:29;101286.81;;;19.28;100.00
47104;BME280;32853;52.164;5.400;2022-08-19T06:12:56;101320.03;;;19.47;100.00
47104;BME280;32853;52.164;5.400;2022-08-19T06:15:26;101305.59;;;19.38;100.00
47104;BME280;32853;52.164;5.400;2022-08-19T06:17:52;101321.63;;;19.49;100.00
47104;BME280;32853;52.164;5.400;2022-08-19T06:20:17;101331.94;;;19.54;100.00
47104;BME280;32853;52.164;5.400;2022-08-19T06:22:49;101264.75;;;19.28;100.00
47104;BME280;32853;52.164;5.400;2022-08-19T06:25:16;101265.09;;;19.36;100.00
47104;BME280;32853;52.164;5.400;2022-08-19T06:27:42;101294.38;;;19.60;100.00
47104;BME280;32853;52.164;5.400;2022-08-19T06:30:08;101243.25;;;19.32;100.00
47104;BME280;32853;52.164;5.400;2022-08-19T06:32:35;101282.28;;;19.56;100.00
47104;BME280;32853;52.164;5.400;2022-08-19T06:35:00;101282.91;;;19.59;100.00
47104;BME280;32853;52.164;5.400;2022-08-19T06:37:25;101326.81;;;19.89;100.00
47104;BME280;32853;52.164;5.400;2022-08-19T06:39:51;101289.03;;;19.72;100.00
47104;BME280;32853;52.164;5.400;2022-08-19T06:42:21;101324.44;;;20.10;100.00
47104;BME280;32853;52.164;5.400;2022-08-19T06:44:48;101219.13;;;19.61;100.00
47104;BME280;32853;52.164;5.400;2022-08-19T06:47:18;101334.56;;;20.28;100.00
47104;BME280;32853;52.164;5.400;2022-08-19T06:49:44;101333.84;;;20.26;100.00
47104;BME280;32853;52.164;5.400;2022-08-19T06:52:17;101226.13;;;19.62;100.00
47104;BME280;32853;52.164;5.400;2022-08-19T06:54:42;101179.81;;;19.29;100.00
47104;BME280;32853;52.164;5.400;2022-08-19T06:57:08;101232.94;;;19.66;100.00
47104;BME280;32853;52.164;5.400;2022-08-19T06:59:38;101322.78;;;20.33;100.00
47104;BME280;32853;52.164;5.400;2022-08-19T07:02:07;101198.00;;;19.47;100.00
47104;BME280;32853;52.164;5.400;2022-08-19T07:04:54;101330.63;;;20.34;100.00
47104;BME280;32853;52.164;5.400;2022-08-19T07:07:22;101280.94;;;19.99;100.00
47104;BME280;32853;52.164;5.400;2022-08-19T07:09:50;101310.63;;;20.05;100.00
47104;BME280;32853;52.164;5.400;2022-08-19T07:12:21;101233.97;;;19.76;100.00
47104;BME280;32853;52.164;5.400;2022-08-19T07:14:47;101340.06;;;20.38;100.00
47104;BME280;32853;52.164;5.400;2022-08-19T07:17:13;101341.25;;;20.34;100.00
47104;BME280;32853;52.164;5.400;2022-08-19T07:19:40;101294.31;;;19.98;100.00
47104;BME280;32853;52.164;5.400;2022-08-19T07:22:07;101351.16;;;20.32;100.00
47104;BME280;32853;52.164;5.400;2022-08-19T07:24:39;101352.00;;;20.33;100.00
47104;BME280;32853;52.164;5.400;2022-08-19T07:27:05;101258.69;;;19.77;100.00
47104;BME280;32853;52.164;5.400;2022-08-19T07:29:32;101343.97;;;20.21;100.00
47104;BME280;32853;52.164;5.400;2022-08-19T07:31:59;101312.97;;;20.09;100.00
47104;BME280;32853;52.164;5.400;2022-08-19T07:34:27;101293.75;;;20.06;100.00
47104;BME280;32853;52.164;5.400;2022-08-19T07:36:53;101353.97;;;20.54;100.00
47104;BME280;32853;52.164;5.400;2022-08-19T07:39:27;101241.59;;;19.81;100.00
47104;BME280;32853;52.164;5.400;2022-08-19T07:41:54;101250.06;;;19.86;100.00
47104;BME280;32853;52.164;5.400;2022-08-19T07:44:20;101307.56;;;20.11;100.00
47104;BME280;32853;52.164;5.400;2022-08-19T07:46:52;101294.97;;;20.25;100.00
47104;BME280;32853;52.164;5.400;2022-08-19T07:49:19;101345.66;;;20.59;100.00
47104;BME280;32853;52.164;5.400;2022-08-19T07:51:47;101350.41;;;20.67;100.00
47104;BME280;32853;52.164;5.400;2022-08-19T07:54:13;101194.16;;;19.76;100.00
47104;BME280;32853;52.164;5.400;2022-08-19T07:56:39;101302.97;;;20.49;100.00
47104;BME280;32853;52.164;5.400;2022-08-19T07:59:05;101213.53;;;19.89;100.00
47104;BME280;32853;52.164;5.400;2022-08-19T08:01:31;101306.25;;;20.53;100.00
47104;BME280;32853;52.164;5.400;2022-08-19T08:03:57;101379.50;;;20.92;100.00
47104;BME280;32853;52.164;5.400;2022-08-19T08:06:41;101315.91;;;20.78;100.00
47104;BME280;32853;52.164;5.400;2022-08-19T08:09:33;101369.91;;;21.13;100.00
47104;BME280;32853;52.164;5.400;2022-08-19T08:12:04;101334.22;;;20.70;100.00
47104;BME280;32853;52.164;5.400;2022-08-19T08:14:43;101376.22;;;21.12;100.00
47104;BME280;32853;52.164;5.400;2022-08-19T08:17:10;101248.50;;;20.31;100.00
47104;BME280;32853;52.164;5.400;2022-08-19T08:19:39;101388.81;;;21.22;100.00
47104;BME280;32853;52.164;5.400;2022-08-19T08:22:06;101370.72;;;21.03;100.00
47104;BME280;32853;52.164;5.400;2022-08-19T08:24:33;101289.34;;;20.54;100.00
47104;BME280;32853;52.164;5.400;2022-08-19T08:27:01;101328.94;;;20.81;100.00
47104;BME280;32853;52.164;5.400;2022-08-19T08:29:27;101237.38;;;20.26;100.00
47104;BME280;32853;52.164;5.400;2022-08-19T08:31:53;101330.56;;;20.95;100.00
47104;BME280;32853;52.164;5.400;2022-08-19T08:34:21;101313.50;;;20.86;100.00
47104;BME280;32853;52.164;5.400;2022-08-19T08:36:47;101328.44;;;21.11;100.00
47104;BME280;32853;52.164;5.400;2022-08-19T08:39:18;101414.56;;;21.56;100.00
47104;BME280;32853;52.164;5.400;2022-08-19T08:41:58;101246.47;;;20.58;100.00
47104;BME280;32853;52.164;5.400;2022-08-19T08:44:52;101407.34;;;21.81;100.00
47104;BME280;32853;52.164;5.400;2022-08-19T08:47:20;101275.16;;;21.24;100.00
47104;BME280;32853;52.164;5.400;2022-08-19T08:49:55;101404.13;;;22.11;100.00
47104;BME280;32853;52.164;5.400;2022-08-19T08:52:25;101404.84;;;22.13;100.00
47104;BME280;32853;52.164;5.400;2022-08-19T08:54:59;101367.16;;;21.84;100.00
47104;BME280;32853;52.164;5.400;2022-08-19T08:57:35;101361.59;;;21.87;100.00
47104;BME280;32853;52.164;5.400;2022-08-19T09:00:06;101266.97;;;21.27;100.00
47104;BME280;32853;52.164;5.400;2022-08-19T09:02:32;101277.84;;;21.35;100.00
47104;BME280;32853;52.164;5.400;2022-08-19T09:04:58;101248.97;;;21.41;100.00
47104;BME280;32853;52.164;5.400;2022-08-19T09:15:47;101356.75;;;22.25;100.00
47104;BME280;32853;52.164;5.400;2022-08-19T09:18:14;101424.53;;;22.66;100.00
47104;BME280;32853;52.164;5.400;2022-08-19T09:20:42;101418.34;;;23.09;100.00
47104;BME280;32853;52.164;5.400;2022-08-19T09:23:09;101349.81;;;22.77;100.00
47104;BME280;32853;52.164;5.400;2022-08-19T09:25:36;101307.53;;;22.84;100.00
47104;BME280;32853;52.164;5.400;2022-08-19T09:28:02;101337.13;;;23.23;100.00
47104;BME280;32853;52.164;5.400;2022-08-19T09:30:32;101389.81;;;23.41;100.00
47104;BME280;32853;52.164;5.400;2022-08-19T09:32:59;101304.84;;;23.05;100.00
47104;BME280;32853;52.164;5.400;2022-08-19T09:35:26;101331.84;;;23.32;100.00
47104;BME280;32853;52.164;5.400;2022-08-19T09:37:54;101413.34;;;23.99;100.00
47104;BME280;32853;52.164;5.400;2022-08-19T09:40:20;101403.81;;;24.16;100.00
47104;BME280;32853;52.164;5.400;2022-08-19T09:42:58;101346.50;;;23.59;100.00
47104;BME280;32853;52.164;5.400;2022-08-19T09:45:25;101379.31;;;24.01;100.00
47104;BME280;32853;52.164;5.400;2022-08-19T09:47:52;101284.25;;;23.58;100.00
47104;BME280;32853;52.164;5.400;2022-08-19T09:50:18;101339.59;;;23.87;100.00
47104;BME280;32853;52.164;5.400;2022-08-19T09:52:45;101361.59;;;24.00;100.00
47104;BME280;32853;52.164;5.400;2022-08-19T09:55:17;101259.03;;;23.21;100.00
47104;BME280;32853;52.164;5.400;2022-08-19T09:57:42;101274.59;;;23.15;100.00
47104;BME280;32853;52.164;5.400;2022-08-19T10:00:09;101258.50;;;23.27;100.00
47104;BME280;32853;52.164;5.400;2022-08-19T10:02:35;101262.41;;;23.23;100.00
47104;BME280;32853;52.164;5.400;2022-08-19T10:05:01;101275.47;;;23.26;100.00
47104;BME280;32853;52.164;5.400;2022-08-19T10:07:45;101260.13;;;23.48;100.00
47104;BME280;32853;52.164;5.400;2022-08-19T10:10:11;101251.41;;;23.67;100.00
47104;BME280;32853;52.164;5.400;2022-08-19T10:12:36;101403.72;;;24.77;100.00
47104;BME280;32853;52.164;5.400;2022-08-19T10:15:04;101347.38;;;24.49;100.00
47104;BME280;32853;52.164;5.400;2022-08-19T10:17:31;101420.34;;;24.80;100.00
47104;BME280;32853;52.164;5.400;2022-08-19T10:19:58;101326.53;;;24.33;100.00
47104;BME280;32853;52.164;5.400;2022-08-19T10:22:24;101314.38;;;24.10;100.00
47104;BME280;32853;52.164;5.400;2022-08-19T10:24:49;101280.31;;;24.02;100.00
47104;BME280;32853;52.164;5.400;2022-08-19T10:27:15;101350.22;;;24.77;100.00
47104;BME280;32853;52.164;5.400;2022-08-19T10:29:41;101365.31;;;25.07;100.00
47104;BME280;32853;52.164;5.400;2022-08-19T10:32:07;101328.69;;;24.78;100.00
47104;BME280;32853;52.164;5.400;2022-08-19T10:34:35;101349.38;;;24.96;100.00
47104;BME280;32853;52.164;5.400;2022-08-19T10:37:02;101249.03;;;24.43;100.00
47104;BME280;32853;52.164;5.400;2022-08-19T10:39:35;101309.66;;;24.81;100.00
47104;BME280;32853;52.164;5.400;2022-08-19T10:42:07;101313.63;;;24.87;100.00
47104;BME280;32853;52.164;5.400;2022-08-19T10:44:35;101404.72;;;25.53;100.00
47104;BME280;32853;52.164;5.400;2022-08-19T10:47:02;101400.72;;;25.67;100.00
47104;BME280;32853;52.164;5.400;2022-08-19T10:49:29;101335.25;;;25.42;100.00
47104;BME280;32853;52.164;5.400;2022-08-19T10:51:56;101381.25;;;25.84;100.00
47104;BME280;32853;52.164;5.400;2022-08-19T10:54:40;101383.94;;;26.12;100.00
47104;BME280;32853;52.164;5.400;2022-08-19T10:57:24;101321.19;;;25.77;100.00
47104;BME280;32853;52.164;5.400;2022-08-19T10:59:54;101321.03;;;25.78;100.00
47104;BME280;32853;52.164;5.400;2022-08-19T11:02:20;101334.44;;;25.78;100.00
47104;BME280;32853;52.164;5.400;2022-08-19T11:04:45;101310.47;;;25.67;100.00
47104;BME280;32853;52.164;5.400;2022-08-19T11:07:10;101383.56;;;26.24;100.00
47104;BME280;32853;52.164;5.400;2022-08-19T11:09:39;101391.63;;;26.24;100.00
47104;BME280;32853;52.164;5.400;2022-08-19T11:12:05;101349.69;;;26.05;100.00
47104;BME280;32853;52.164;5.400;2022-08-19T11:14:31;101378.25;;;26.15;100.00
47104;BME280;32853;52.164;5.400;2022-08-19T11:16:58;101377.78;;;26.29;100.00
47104;BME280;32853;52.164;5.400;2022-08-19T11:19:24;101354.25;;;26.50;100.00
47104;BME280;32853;52.164;5.400;2022-08-19T11:21:51;101223.69;;;25.88;100.00
47104;BME280;32853;52.164;5.400;2022-08-19T11:24:20;101374.69;;;26.69;100.00
47104;BME280;32853;52.164;5.400;2022-08-19T11:26:49;101231.59;;;26.07;100.00
47104;BME280;32853;52.164;5.400;2022-08-19T11:29:17;101369.06;;;26.72;100.00
47104;BME280;32853;52.164;5.400;2022-08-19T11:31:46;101361.06;;;26.98;100.00
47104;BME280;32853;52.164;5.400;2022-08-19T11:34:17;101346.09;;;26.96;100.00
47104;BME280;32853;52.164;5.400;2022-08-19T11:36:45;101250.88;;;26.11;100.00
47104;BME280;32853;52.164;5.400;2022-08-19T11:39:14;101349.59;;;27.06;100.00
47104;BME280;32853;52.164;5.400;2022-08-19T11:41:41;101346.34;;;27.02;100.00
47104;BME280;32853;52.164;5.400;2022-08-19T11:44:07;101315.81;;;27.03;100.00
47104;BME280;32853;52.164;5.400;2022-08-19T11:46:34;101363.63;;;27.26;100.00
47104;BME280;32853;52.164;5.400;2022-08-19T11:49:00;101294.34;;;26.85;100.00
47104;BME280;32853;52.164;5.400;2022-08-19T11:51:27;101284.47;;;26.68;100.00
47104;BME280;32853;52.164;5.400;2022-08-19T11:53:55;101321.94;;;26.96;100.00
47104;BME280;32853;52.164;5.400;2022-08-19T11:56:22;101366.66;;;27.05;100.00
47104;BME280;32853;52.164;5.400;2022-08-19T11:58:47;101306.63;;;26.70;100.00
47104;BME280;32853;52.164;5.400;2022-08-19T12:01:15;101284.63;;;26.49;100.00
47104;BME280;32853;52.164;5.400;2022-08-19T12:03:42;101272.16;;;26.40;100.00
47104;BME280;32853;52.164;5.400;2022-08-19T12:06:10;101316.91;;;26.75;100.00
47104;BME280;32853;52.164;5.400;2022-08-19T12:08:37;101288.72;;;26.53;100.00
47104;BME280;32853;52.164;5.400;2022-08-19T12:11:04;101339.66;;;26.88;100.00
47104;BME280;32853;52.164;5.400;2022-08-19T12:13:30;101273.84;;;26.13;100.00
47104;BME280;32853;52.164;5.400;2022-08-19T12:15:56;101208.13;;;25.73;100.00
47104;BME280;32853;52.164;5.400;2022-08-19T12:18:28;101361.66;;;26.39;100.00
47104;BME280;32853;52.164;5.400;2022-08-19T12:20:53;101271.88;;;25.60;100.00
47104;BME280;32853;52.164;5.400;2022-08-19T12:23:25;101256.06;;;25.39;100.00
47104;BME280;32853;52.164;5.400;2022-08-19T12:25:53;101284.34;;;25.52;100.00
47104;BME280;32853;52.164;5.400;2022-08-19T12:28:20;101358.25;;;25.82;100.00
47104;BME280;32853;52.164;5.400;2022-08-19T12:30:47;101228.09;;;25.05;100.00
47104;BME280;32853;52.164;5.400;2022-08-19T12:33:13;101325.50;;;25.51;100.00
47104;BME280;32853;52.164;5.400;2022-08-19T12:35:41;101371.25;;;25.67;100.00
47104;BME280;32853;52.164;5.400;2022-08-19T12:38:07;101343.44;;;25.31;100.00
47104;BME280;32853;52.164;5.400;2022-08-19T12:40:32;101381.69;;;25.60;100.00
47104;BME280;32853;52.164;5.400;2022-08-19T12:42:58;101255.75;;;24.67;100.00
47104;BME280;32853;52.164;5.400;2022-08-19T12:45:24;101259.28;;;24.57;100.00
47104;BME280;32853;52.164;5.400;2022-08-19T12:47:49;101393.03;;;25.25;100.00
47104;BME280;32853;52.164;5.400;2022-08-19T12:50:15;101338.25;;;25.00;100.00
47104;BME280;32853;52.164;5.400;2022-08-19T12:52:40;101357.97;;;25.18;100.00
47104;BME280;32853;52.164;5.400;2022-08-19T12:55:14;101307.97;;;25.00;100.00
47104;BME280;32853;52.164;5.400;2022-08-19T12:57:40;101294.88;;;24.97;100.00
47104;BME280;32853;52.164;5.400;2022-08-19T13:02:43;101325.91;;;25.46;100.00